sensor_id;sensor_type;location;lat;lon;timestamp;pressure;altitude;pressure_sealevel;temperature;humidity
75045;BME280;63614;56.026;35.960;2022-10-31T00:01:27;97718.50;;;0.58;66.56
75045;BME280;63614;56.026;35.960;2022-10-31T00:03:53;97712.28;;;0.44;66.33
75045;BME280;63614;56.026;35.960;2022-10-31T00:06:20;97716.59;;;0.51;66.61
75045;BME280;63614;56.026;35.960;2022-10-31T00:08:54;97697.22;;;0.49;65.86
75045;BME280;63614;56.026;35.960;2022-10-31T00:11:20;97712.75;;;0.47;66.12
75045;BME280;63614;56.026;35.960;2022-10-31T00:13:46;97707.75;;;0.54;66.58
75045;BME280;63614;56.026;35.960;2022-10-31T00:16:14;97702.97;;;0.51;66.14
75045;BME280;63614;56.026;35.960;2022-10-31T00:18:40;97689.22;;;0.52;65.99
75045;BME280;63614;56.026;35.960;2022-10-31T00:21:06;97702.28;;;0.65;65.76
75045;BME280;63614;56.026;35.960;2022-10-31T00:23:32;97695.59;;;0.64;66.01
75045;BME280;63614;56.026;35.960;2022-10-31T00:26:02;97692.91;;;0.58;66.20
75045;BME280;63614;56.026;35.960;2022-10-31T00:28:29;97685.84;;;0.60;65.52
75045;BME280;63614;56.026;35.960;2022-10-31T00:31:04;97673.38;;;0.57;65.62
75045;BME280;63614;56.026;35.960;2022-10-31T00:33:30;97672.75;;;0.54;65.88
75045;BME280;63614;56.026;35.960;2022-10-31T00:35:56;97676.44;;;0.52;65.59
75045;BME280;63614;56.026;35.960;2022-10-31T00:38:22;97668.56;;;0.62;65.52
75045;BME280;63614;56.026;35.960;2022-10-31T00:40:48;97659.81;;;0.56;65.07
75045;BME280;63614;56.026;35.960;2022-10-31T00:43:14;97670.47;;;0.68;65.11
75045;BME280;63614;56.026;35.960;2022-10-31T00:45:41;97666.78;;;0.62;66.03
75045;BME280;63614;56.026;35.960;2022-10-31T00:48:07;97663.75;;;0.67;65.85
75045;BME280;63614;56.026;35.960;2022-10-31T00:50:33;97658.13;;;0.71;66.29
75045;BME280;63614;56.026;35.960;2022-10-31T00:52:59;97670.25;;;0.78;66.14
75045;BME280;63614;56.026;35.960;2022-10-31T00:55:25;97656.41;;;0.64;65.47
75045;BME280;63614;56.026;35.960;2022-10-31T00:57:52;97662.13;;;0.74;66.02
75045;BME280;63614;56.026;35.960;2022-10-31T01:00:18;97647.16;;;0.63;65.88
75045;BME280;63614;56.026;35.960;2022-10-31T01:02:45;97650.81;;;0.60;66.11
75045;BME280;63614;56.026;35.960;2022-10-31T01:05:11;97650.53;;;0.55;65.95
75045;BME280;63614;56.026;35.960;2022-10-31T01:07:38;97644.13;;;0.59;65.99
75045;BME280;63614;56.026;35.960;2022-10-31T01:10:09;97658.78;;;0.65;65.78
75045;BME280;63614;56.026;35.960;2022-10-31T01:12:46;97663.63;;;0.60;65.30
75045;BME280;63614;56.026;35.960;2022-10-31T01:15:15;97659.47;;;0.59;65.92
75045;BME280;63614;56.026;35.960;2022-10-31T01:17:42;97662.78;;;0.68;66.28
75045;BME280;63614;56.026;35.960;2022-10-31T01:20:11;97652.09;;;0.64;65.92
75045;BME280;63614;56.026;35.960;2022-10-31T01:22:37;97661.19;;;0.67;65.62
75045;BME280;63614;56.026;35.960;2022-10-31T01:25:04;97654.81;;;0.63;65.84
75045;BME280;63614;56.026;35.960;2022-10-31T01:27:31;97660.50;;;0.73;65.55
75045;BME280;63614;56.026;35.960;2022-10-31T01:29:57;97664.22;;;0.70;65.63
75045;BME280;63614;56.026;35.960;2022-10-31T01:32:23;97654.78;;;0.71;66.11
75045;BME280;63614;56.026;35.960;2022-10-31T01:34:50;97663.00;;;0.58;66.63
75045;BME280;63614;56.026;35.960;2022-10-31T01:37:16;97655.19;;;0.51;66.55
75045;BME280;63614;56.026;35.960;2022-10-31T01:39:42;97661.09;;;0.52;66.04
75045;BME280;63614;56.026;35.960;2022-10-31T01:42:17;97661.38;;;0.57;66.48
75045;BME280;63614;56.026;35.960;2022-10-31T01:44:55;97648.25;;;0.60;65.92
75045;BME280;63614;56.026;35.960;2022-10-31T01:49:57;97660.69;;;0.71;65.17
75045;BME280;63614;56.026;35.960;2022-10-31T01:52:55;97661.16;;;0.75;65.51
75045;BME280;63614;56.026;35.960;2022-10-31T01:55:26;97656.97;;;0.82;65.21
75045;BME280;63614;56.026;35.960;2022-10-31T01:58:01;97658.06;;;0.88;65.28
75045;BME280;63614;56.026;35.960;2022-10-31T02:00:28;97660.19;;;0.76;64.96
75045;BME280;63614;56.026;35.960;2022-10-31T02:02:54;97662.91;;;0.75;64.35
75045;BME280;63614;56.026;35.960;2022-10-31T02:05:26;97650.41;;;0.80;64.17
75045;BME280;63614;56.026;35.960;2022-10-31T02:08:04;97667.69;;;0.78;64.18
75045;BME280;63614;56.026;35.960;2022-10-31T02:10:32;97679.38;;;0.80;64.15
75045;BME280;63614;56.026;35.960;2022-10-31T02:13:02;97671.09;;;0.70;63.64
75045;BME280;63614;56.026;35.960;2022-10-31T02:15:29;97645.69;;;0.60;64.63
75045;BME280;63614;56.026;35.960;2022-10-31T02:17:57;97649.91;;;0.53;64.46
75045;BME280;63614;56.026;35.960;2022-10-31T02:20:29;97663.78;;;0.59;64.15
75045;BME280;63614;56.026;35.960;2022-10-31T02:34:37;97664.63;;;0.82;63.77
75045;BME280;63614;56.026;35.960;2022-10-31T02:43:06;97663.56;;;0.77;63.50
75045;BME280;63614;56.026;35.960;2022-10-31T02:45:44;97660.78;;;0.86;63.68
75045;BME280;63614;56.026;35.960;2022-10-31T02:48:19;97666.13;;;0.68;62.87
75045;BME280;63614;56.026;35.960;2022-10-31T02:50:52;97655.34;;;0.81;63.06
75045;BME280;63614;56.026;35.960;2022-10-31T02:53:20;97663.75;;;0.67;63.30
75045;BME280;63614;56.026;35.960;2022-10-31T02:58:18;97666.13;;;0.77;62.42
75045;BME280;63614;56.026;35.960;2022-10-31T03:09:23;97666.56;;;0.80;62.51
75045;BME280;63614;56.026;35.960;2022-10-31T03:14:36;97656.06;;;0.75;62.79
75045;BME280;63614;56.026;35.960;2022-10-31T03:17:06;97653.66;;;0.65;62.95
75045;BME280;63614;56.026;35.960;2022-10-31T03:19:42;97660.22;;;0.68;63.59
75045;BME280;63614;56.026;35.960;2022-10-31T03:22:16;97659.47;;;0.59;63.72
75045;BME280;63614;56.026;35.960;2022-10-31T03:24:43;97665.88;;;0.55;64.50
75045;BME280;63614;56.026;35.960;2022-10-31T03:27:13;97667.03;;;0.44;64.76
75045;BME280;63614;56.026;35.960;2022-10-31T03:29:42;97677.22;;;0.52;65.12
75045;BME280;63614;56.026;35.960;2022-10-31T03:32:14;97682.66;;;0.49;65.94
75045;BME280;63614;56.026;35.960;2022-10-31T03:34:44;97693.44;;;0.45;67.56
75045;BME280;63614;56.026;35.960;2022-10-31T03:37:13;97693.59;;;0.27;69.38
75045;BME280;63614;56.026;35.960;2022-10-31T03:39:43;97704.00;;;0.17;70.42
75045;BME280;63614;56.026;35.960;2022-10-31T03:42:15;97707.38;;;0.09;72.72
75045;BME280;63614;56.026;35.960;2022-10-31T03:44:46;97706.63;;;-0.08;74.05
75045;BME280;63614;56.026;35.960;2022-10-31T03:47:14;97712.53;;;-0.24;75.49
75045;BME280;63614;56.026;35.960;2022-10-31T03:49:40;97715.25;;;-0.33;76.70
75045;BME280;63614;56.026;35.960;2022-10-31T03:54:46;97724.00;;;-0.52;79.87
75045;BME280;63614;56.026;35.960;2022-10-31T03:57:26;97718.06;;;-0.53;81.10
75045;BME280;63614;56.026;35.960;2022-10-31T04:00:03;97720.16;;;-0.57;81.26
75045;BME280;63614;56.026;35.960;2022-10-31T04:02:33;97723.19;;;-0.61;82.14
75045;BME280;63614;56.026;35.960;2022-10-31T04:05:01;97732.78;;;-0.47;82.53
75045;BME280;63614;56.026;35.960;2022-10-31T04:07:34;97715.03;;;-0.57;82.17
75045;BME280;63614;56.026;35.960;2022-10-31T04:10:04;97736.41;;;-0.58;82.35
75045;BME280;63614;56.026;35.960;2022-10-31T04:12:34;97730.22;;;-0.55;83.14
75045;BME280;63614;56.026;35.960;2022-10-31T04:15:22;97732.13;;;-0.49;82.64
75045;BME280;63614;56.026;35.960;2022-10-31T04:17:51;97722.56;;;-0.47;81.70
75045;BME280;63614;56.026;35.960;2022-10-31T04:20:32;97736.13;;;-0.46;81.56
75045;BME280;63614;56.026;35.960;2022-10-31T04:22:59;97740.13;;;-0.44;81.03
75045;BME280;63614;56.026;35.960;2022-10-31T04:25:25;97739.00;;;-0.49;80.90
75045;BME280;63614;56.026;35.960;2022-10-31T04:27:53;97737.72;;;-0.62;81.57
75045;BME280;63614;56.026;35.960;2022-10-31T04:30:19;97746.31;;;-0.55;81.75
75045;BME280;63614;56.026;35.960;2022-10-31T04:32:44;97759.47;;;-0.41;81.73
75045;BME280;63614;56.026;35.960;2022-10-31T04:35:10;97763.94;;;-0.35;81.12
75045;BME280;63614;56.026;35.960;2022-10-31T04:37:36;97764.88;;;-0.44;81.92
75045;BME280;63614;56.026;35.960;2022-10-31T04:40:03;97757.53;;;-0.47;81.31
75045;BME280;63614;56.026;35.960;2022-10-31T04:42:47;97757.53;;;-0.47;81.24
75045;BME280;63614;56.026;35.960;2022-10-31T04:45:14;97767.75;;;-0.39;81.30
75045;BME280;63614;56.026;35.960;2022-10-31T04:47:40;97777.97;;;-0.39;80.83
75045;BME280;63614;56.026;35.960;2022-10-31T04:50:06;97781.63;;;-0.42;81.16
75045;BME280;63614;56.026;35.960;2022-10-31T04:52:39;97787.09;;;-0.37;80.58
75045;BME280;63614;56.026;35.960;2022-10-31T04:55:07;97790.59;;;-0.38;80.35
75045;BME280;63614;56.026;35.960;2022-10-31T04:57:53;97810.22;;;-0.38;80.23
75045;BME280;63614;56.026;35.960;2022-10-31T05:00:21;97823.81;;;-0.29;79.87
75045;BME280;63614;56.026;35.960;2022-10-31T05:02:51;97817.75;;;-0.20;79.78
75045;BME280;63614;56.026;35.960;2022-10-31T05:05:19;97823.50;;;-0.26;79.33
75045;BME280;63614;56.026;35.960;2022-10-31T05:07:46;97852.44;;;-0.17;79.35
75045;BME280;63614;56.026;35.960;2022-10-31T05:10:15;97846.22;;;-0.07;78.80
75045;BME280;63614;56.026;35.960;2022-10-31T05:12:46;97843.47;;;-0.13;78.16
75045;BME280;63614;56.026;35.960;2022-10-31T05:15:42;97853.41;;;-0.02;78.05
75045;BME280;63614;56.026;35.960;2022-10-31T05:18:11;97855.97;;;0.06;77.84
75045;BME280;63614;56.026;35.960;2022-10-31T05:20:55;97857.41;;;0.01;78.11
75045;BME280;63614;56.026;35.960;2022-10-31T05:23:29;97865.25;;;0.07;77.94
75045;BME280;63614;56.026;35.960;2022-10-31T05:25:55;97876.41;;;0.06;78.34
75045;BME280;63614;56.026;35.960;2022-10-31T05:28:21;97882.66;;;0.12;78.11
75045;BME280;63614;56.026;35.960;2022-10-31T05:30:46;97888.78;;;0.27;77.67
75045;BME280;63614;56.026;35.960;2022-10-31T05:33:15;97884.13;;;0.31;76.96
75045;BME280;63614;56.026;35.960;2022-10-31T05:35:58;97891.66;;;0.32;76.86
75045;BME280;63614;56.026;35.960;2022-10-31T05:39:00;97902.34;;;0.44;76.36
75045;BME280;63614;56.026;35.960;2022-10-31T05:41:32;97908.44;;;0.43;76.26
75045;BME280;63614;56.026;35.960;2022-10-31T05:44:09;97914.03;;;0.55;76.14
75045;BME280;63614;56.026;35.960;2022-10-31T05:46:50;97923.47;;;0.63;76.17
75045;BME280;63614;56.026;35.960;2022-10-31T05:49:35;97926.34;;;0.60;76.17
75045;BME280;63614;56.026;35.960;2022-10-31T05:52:36;97928.59;;;0.63;76.49
75045;BME280;63614;56.026;35.960;2022-10-31T05:55:15;97919.78;;;0.65;76.54
75045;BME280;63614;56.026;35.960;2022-10-31T05:57:56;97940.56;;;0.62;76.71
75045;BME280;63614;56.026;35.960;2022-10-31T06:00:24;97948.59;;;0.76;76.72
75045;BME280;63614;56.026;35.960;2022-10-31T06:03:04;97953.06;;;0.82;76.48
75045;BME280;63614;56.026;35.960;2022-10-31T06:05:49;97967.75;;;0.80;76.98
75045;BME280;63614;56.026;35.960;2022-10-31T06:08:15;97962.69;;;0.88;76.39
75045;BME280;63614;56.026;35.960;2022-10-31T06:10:42;97971.94;;;0.81;76.31
75045;BME280;63614;56.026;35.960;2022-10-31T06:13:08;97965.72;;;0.83;76.67
75045;BME280;63614;56.026;35.960;2022-10-31T06:15:43;97972.56;;;0.83;76.76
75045;BME280;63614;56.026;35.960;2022-10-31T06:18:11;97989.69;;;0.90;76.80
75045;BME280;63614;56.026;35.960;2022-10-31T06:20:45;97995.91;;;0.80;77.21
75045;BME280;63614;56.026;35.960;2022-10-31T06:23:11;97997.22;;;0.92;77.04
75045;BME280;63614;56.026;35.960;2022-10-31T06:25:39;97998.19;;;0.99;76.12
75045;BME280;63614;56.026;35.960;2022-10-31T06:28:05;97988.75;;;1.00;76.01
75045;BME280;63614;56.026;35.960;2022-10-31T06:30:45;98003.94;;;1.01;75.82
75045;BME280;63614;56.026;35.960;2022-10-31T06:33:11;98011.94;;;1.15;75.59
75045;BME280;63614;56.026;35.960;2022-10-31T06:35:46;98017.38;;;1.12;75.82
75045;BME280;63614;56.026;35.960;2022-10-31T06:38:13;98021.38;;;1.14;75.58
75045;BME280;63614;56.026;35.960;2022-10-31T06:40:41;98023.78;;;1.16;75.42
75045;BME280;63614;56.026;35.960;2022-10-31T06:43:15;98030.50;;;1.17;75.41
75045;BME280;63614;56.026;35.960;2022-10-31T06:45:42;98034.19;;;1.22;74.97
75045;BME280;63614;56.026;35.960;2022-10-31T06:48:21;98036.75;;;1.22;75.20
75045;BME280;63614;56.026;35.960;2022-10-31T06:51:06;98055.50;;;1.23;75.29
75045;BME280;63614;56.026;35.960;2022-10-31T06:53:32;98057.38;;;1.29;74.88
75045;BME280;63614;56.026;35.960;2022-10-31T06:55:58;98062.34;;;1.22;75.08
75045;BME280;63614;56.026;35.960;2022-10-31T06:58:25;98083.97;;;1.36;74.88
75045;BME280;63614;56.026;35.960;2022-10-31T07:00:54;98087.47;;;1.43;74.49
75045;BME280;63614;56.026;35.960;2022-10-31T07:03:20;98100.47;;;1.50;74.35
75045;BME280;63614;56.026;35.960;2022-10-31T07:05:47;98093.25;;;1.54;73.66
75045;BME280;63614;56.026;35.960;2022-10-31T07:08:14;98090.06;;;1.52;73.60
75045;BME280;63614;56.026;35.960;2022-10-31T07:10:42;98108.94;;;1.59;73.80
75045;BME280;63614;56.026;35.960;2022-10-31T07:13:13;98112.94;;;1.70;72.82
75045;BME280;63614;56.026;35.960;2022-10-31T07:15:45;98112.16;;;1.69;73.16
75045;BME280;63614;56.026;35.960;2022-10-31T07:18:12;98119.81;;;1.61;73.06
75045;BME280;63614;56.026;35.960;2022-10-31T07:20:38;98137.75;;;1.86;72.59
75045;BME280;63614;56.026;35.960;2022-10-31T07:23:04;98124.63;;;1.80;72.29
75045;BME280;63614;56.026;35.960;2022-10-31T07:25:31;98142.41;;;1.82;72.65
75045;BME280;63614;56.026;35.960;2022-10-31T07:28:05;98142.09;;;1.85;72.09
75045;BME280;63614;56.026;35.960;2022-10-31T07:30:31;98151.06;;;1.89;71.64
75045;BME280;63614;56.026;35.960;2022-10-31T07:32:58;98172.53;;;2.05;71.35
75045;BME280;63614;56.026;35.960;2022-10-31T07:35:34;98178.78;;;1.86;71.24
75045;BME280;63614;56.026;35.960;2022-10-31T07:38:08;98174.28;;;1.96;71.19
75045;BME280;63614;56.026;35.960;2022-10-31T07:40:34;98193.03;;;1.88;71.00
75045;BME280;63614;56.026;35.960;2022-10-31T07:43:02;98195.28;;;1.99;71.49
75045;BME280;63614;56.026;35.960;2022-10-31T07:45:43;98217.41;;;2.00;71.32
75045;BME280;63614;56.026;35.960;2022-10-31T07:48:38;98201.06;;;1.93;71.19
75045;BME280;63614;56.026;35.960;2022-10-31T07:51:23;98212.72;;;2.04;70.51
75045;BME280;63614;56.026;35.960;2022-10-31T07:54:18;98202.50;;;1.96;70.89
75045;BME280;63614;56.026;35.960;2022-10-31T07:56:44;98220.75;;;1.93;70.92
75045;BME280;63614;56.026;35.960;2022-10-31T07:59:09;98218.69;;;2.05;70.39
75045;BME280;63614;56.026;35.960;2022-10-31T08:01:35;98222.34;;;2.10;69.78
75045;BME280;63614;56.026;35.960;2022-10-31T08:04:21;98230.03;;;2.10;70.09
75045;BME280;63614;56.026;35.960;2022-10-31T08:07:07;98239.66;;;2.16;70.18
75045;BME280;63614;56.026;35.960;2022-10-31T08:09:36;98240.16;;;2.12;69.72
75045;BME280;63614;56.026;35.960;2022-10-31T08:12:10;98242.72;;;2.12;69.75
75045;BME280;63614;56.026;35.960;2022-10-31T08:14:36;98251.56;;;2.09;69.22
75045;BME280;63614;56.026;35.960;2022-10-31T08:17:02;98256.84;;;2.08;68.33
75045;BME280;63614;56.026;35.960;2022-10-31T08:19:38;98261.50;;;2.12;68.41
75045;BME280;63614;56.026;35.960;2022-10-31T08:22:04;98263.88;;;2.22;68.08
75045;BME280;63614;56.026;35.960;2022-10-31T08:24:30;98258.59;;;2.15;68.02
75045;BME280;63614;56.026;35.960;2022-10-31T08:26:57;98269.00;;;2.30;68.55
75045;BME280;63614;56.026;35.960;2022-10-31T08:29:24;98279.91;;;2.24;69.75
75045;BME280;63614;56.026;35.960;2022-10-31T08:31:50;98287.28;;;2.03;74.17
75045;BME280;63614;56.026;35.960;2022-10-31T08:34:39;98293.06;;;2.05;75.11
75045;BME280;63614;56.026;35.960;2022-10-31T08:37:31;98308.78;;;2.10;75.94
75045;BME280;63614;56.026;35.960;2022-10-31T08:39:57;98312.28;;;2.09;75.67
75045;BME280;63614;56.026;35.960;2022-10-31T08:42:22;98306.22;;;2.10;75.77
75045;BME280;63614;56.026;35.960;2022-10-31T08:44:48;98305.72;;;1.98;76.59
75045;BME280;63614;56.026;35.960;2022-10-31T08:47:14;98317.72;;;2.06;76.10
75045;BME280;63614;56.026;35.960;2022-10-31T08:49:40;98318.19;;;1.93;76.38
75045;BME280;63614;56.026;35.960;2022-10-31T08:52:06;98321.13;;;2.14;75.99
75045;BME280;63614;56.026;35.960;2022-10-31T08:54:36;98318.88;;;2.44;75.11
75045;BME280;63614;56.026;35.960;2022-10-31T08:57:29;98343.72;;;2.35;75.05
75045;BME280;63614;56.026;35.960;2022-10-31T08:59:56;98354.31;;;2.16;76.29
75045;BME280;63614;56.026;35.960;2022-10-31T09:02:33;98346.47;;;2.26;76.85
75045;BME280;63614;56.026;35.960;2022-10-31T09:05:01;98348.41;;;2.24;76.33
75045;BME280;63614;56.026;35.960;2022-10-31T09:07:29;98355.78;;;2.27;75.04
75045;BME280;63614;56.026;35.960;2022-10-31T09:09:55;98351.91;;;2.39;75.51
75045;BME280;63614;56.026;35.960;2022-10-31T09:12:22;98348.53;;;2.47;73.82
75045;BME280;63614;56.026;35.960;2022-10-31T09:15:28;98362.97;;;2.56;74.58
75045;BME280;63614;56.026;35.960;2022-10-31T09:18:16;98360.75;;;2.53;73.15
75045;BME280;63614;56.026;35.960;2022-10-31T09:21:08;98365.72;;;2.46;73.73
75045;BME280;63614;56.026;35.960;2022-10-31T09:23:34;98380.13;;;2.31;74.00
75045;BME280;63614;56.026;35.960;2022-10-31T09:26:01;98392.66;;;2.42;74.56
75045;BME280;63614;56.026;35.960;2022-10-31T09:28:30;98384.63;;;2.53;74.33
75045;BME280;63614;56.026;35.960;2022-10-31T09:31:01;98396.66;;;2.36;73.91
75045;BME280;63614;56.026;35.960;2022-10-31T09:33:45;98404.69;;;2.33;73.62
75045;BME280;63614;56.026;35.960;2022-10-31T09:36:38;98412.38;;;2.33;72.74
75045;BME280;63614;56.026;35.960;2022-10-31T09:39:07;98427.00;;;2.58;73.00
75045;BME280;63614;56.026;35.960;2022-10-31T09:45:11;98406.78;;;2.46;71.60
75045;BME280;63614;56.026;35.960;2022-10-31T09:50:46;98418.97;;;2.61;70.66
75045;BME280;63614;56.026;35.960;2022-10-31T09:54:18;98422.03;;;2.64;71.04
75045;BME280;63614;56.026;35.960;2022-10-31T09:56:45;98420.44;;;2.63;71.67
75045;BME280;63614;56.026;35.960;2022-10-31T09:59:27;98417.53;;;2.75;72.29
75045;BME280;63614;56.026;35.960;2022-10-31T10:07:48;98416.88;;;2.81;73.59
75045;BME280;63614;56.026;35.960;2022-10-31T10:30:22;98455.56;;;3.12;69.11
75045;BME280;63614;56.026;35.960;2022-10-31T10:32:53;98473.69;;;3.11;68.63
75045;BME280;63614;56.026;35.960;2022-10-31T10:35:27;98471.44;;;3.16;68.43
75045;BME280;63614;56.026;35.960;2022-10-31T10:40:42;98485.25;;;3.23;67.77
75045;BME280;63614;56.026;35.960;2022-10-31T10:51:59;98480.78;;;3.00;65.87
75045;BME280;63614;56.026;35.960;2022-10-31T11:00:19;98508.88;;;3.10;66.09
75045;BME280;63614;56.026;35.960;2022-10-31T11:02:45;98516.91;;;3.07;66.58
75045;BME280;63614;56.026;35.960;2022-10-31T11:05:50;98510.81;;;3.08;66.50
75045;BME280;63614;56.026;35.960;2022-10-31T11:08:31;98515.13;;;3.32;66.16
75045;BME280;63614;56.026;35.960;2022-10-31T11:13:30;98523.78;;;3.64;66.07
75045;BME280;63614;56.026;35.960;2022-10-31T11:16:07;98532.78;;;3.52;65.36
75045;BME280;63614;56.026;35.960;2022-10-31T11:18:45;98538.59;;;3.29;65.59
75045;BME280;63614;56.026;35.960;2022-10-31T11:21:26;98539.53;;;3.44;66.17
75045;BME280;63614;56.026;35.960;2022-10-31T11:26:35;98535.03;;;3.55;65.99
75045;BME280;63614;56.026;35.960;2022-10-31T11:29:04;98526.34;;;3.64;64.84
75045;BME280;63614;56.026;35.960;2022-10-31T11:31:31;98539.34;;;3.62;64.69
75045;BME280;63614;56.026;35.960;2022-10-31T11:34:03;98531.94;;;3.68;65.15
75045;BME280;63614;56.026;35.960;2022-10-31T11:36:34;98533.22;;;3.72;65.59
75045;BME280;63614;56.026;35.960;2022-10-31T11:39:04;98539.00;;;3.74;65.34
75045;BME280;63614;56.026;35.960;2022-10-31T11:41:33;98533.88;;;3.74;65.35
75045;BME280;63614;56.026;35.960;2022-10-31T11:44:01;98526.63;;;3.77;64.69
75045;BME280;63614;56.026;35.960;2022-10-31T11:46:34;98538.34;;;3.80;65.04
75045;BME280;63614;56.026;35.960;2022-10-31T11:49:02;98534.44;;;3.92;64.48
75045;BME280;63614;56.026;35.960;2022-10-31T11:51:31;98535.72;;;3.96;64.26
75045;BME280;63614;56.026;35.960;2022-10-31T11:53:59;98547.78;;;4.04;64.56
75045;BME280;63614;56.026;35.960;2022-10-31T11:56:37;98540.59;;;3.91;63.55
75045;BME280;63614;56.026;35.960;2022-10-31T11:59:13;98540.44;;;3.76;64.03
75045;BME280;63614;56.026;35.960;2022-10-31T12:01:47;98526.47;;;3.79;64.34
75045;BME280;63614;56.026;35.960;2022-10-31T12:04:13;98531.63;;;3.71;65.22
75045;BME280;63614;56.026;35.960;2022-10-31T12:06:41;98541.59;;;3.74;65.15
75045;BME280;63614;56.026;35.960;2022-10-31T12:09:22;98533.88;;;3.66;65.31
75045;BME280;63614;56.026;35.960;2022-10-31T12:35:56;98598.34;;;3.31;68.57
75045;BME280;63614;56.026;35.960;2022-10-31T12:38:37;98601.88;;;3.38;68.94
75045;BME280;63614;56.026;35.960;2022-10-31T12:41:23;98583.22;;;3.28;69.15
75045;BME280;63614;56.026;35.960;2022-10-31T12:55:55;98624.34;;;3.20;69.09
75045;BME280;63614;56.026;35.960;2022-10-31T12:58:00;98629.00;;;3.16;69.13
75045;BME280;63614;56.026;35.960;2022-10-31T13:00:28;98634.47;;;3.21;68.95
75045;BME280;63614;56.026;35.960;2022-10-31T13:03:27;98634.16;;;3.16;69.07
75045;BME280;63614;56.026;35.960;2022-10-31T13:05:59;98637.06;;;3.30;68.92
75045;BME280;63614;56.026;35.960;2022-10-31T13:08:36;98637.38;;;3.26;69.27
75045;BME280;63614;56.026;35.960;2022-10-31T13:11:10;98642.81;;;3.23;69.18
75045;BME280;63614;56.026;35.960;2022-10-31T13:14:05;98647.34;;;3.30;68.94
75045;BME280;63614;56.026;35.960;2022-10-31T13:16:45;98657.31;;;3.33;68.68
75045;BME280;63614;56.026;35.960;2022-10-31T13:19:17;98648.47;;;3.35;68.75
75045;BME280;63614;56.026;35.960;2022-10-31T13:27:21;98668.19;;;3.18;69.59
75045;BME280;63614;56.026;35.960;2022-10-31T13:32:14;98667.25;;;3.27;69.65
75045;BME280;63614;56.026;35.960;2022-10-31T13:34:44;98670.47;;;3.38;69.22
75045;BME280;63614;56.026;35.960;2022-10-31T13:40:03;98679.47;;;3.34;69.58
75045;BME280;63614;56.026;35.960;2022-10-31T13:45:26;98671.44;;;3.37;69.88
75045;BME280;63614;56.026;35.960;2022-10-31T13:48:00;98684.94;;;3.39;70.03
75045;BME280;63614;56.026;35.960;2022-10-31T13:50:29;98687.81;;;3.36;70.08
75045;BME280;63614;56.026;35.960;2022-10-31T13:53:19;98680.56;;;3.23;70.69
75045;BME280;63614;56.026;35.960;2022-10-31T13:55:48;98682.84;;;3.26;71.08
75045;BME280;63614;56.026;35.960;2022-10-31T13:58:26;98687.44;;;3.14;71.16
75045;BME280;63614;56.026;35.960;2022-10-31T14:03:29;98705.44;;;3.14;71.08
75045;BME280;63614;56.026;35.960;2022-10-31T14:05:56;98710.09;;;3.19;70.93
75045;BME280;63614;56.026;35.960;2022-10-31T14:08:23;98697.56;;;3.16;70.30
75045;BME280;63614;56.026;35.960;2022-10-31T14:10:52;98714.94;;;3.22;70.32
75045;BME280;63614;56.026;35.960;2022-10-31T14:15:58;98730.50;;;3.12;70.53
75045;BME280;63614;56.026;35.960;2022-10-31T14:18:37;98714.91;;;3.14;70.50
75045;BME280;63614;56.026;35.960;2022-10-31T14:23:48;98727.75;;;3.14;70.51
75045;BME280;63614;56.026;35.960;2022-10-31T14:29:35;98735.78;;;3.11;70.10
75045;BME280;63614;56.026;35.960;2022-10-31T14:31:44;98744.66;;;3.16;70.07
75045;BME280;63614;56.026;35.960;2022-10-31T14:34:26;98750.09;;;3.13;70.00
75045;BME280;63614;56.026;35.960;2022-10-31T14:40:17;98761.63;;;3.09;69.68
75045;BME280;63614;56.026;35.960;2022-10-31T14:46:11;98757.78;;;3.05;69.54
75045;BME280;63614;56.026;35.960;2022-10-31T14:51:22;98773.81;;;2.99;70.04
75045;BME280;63614;56.026;35.960;2022-10-31T14:53:50;98785.66;;;3.00;70.19
75045;BME280;63614;56.026;35.960;2022-10-31T14:56:25;98782.31;;;2.99;70.48
75045;BME280;63614;56.026;35.960;2022-10-31T14:58:53;98781.22;;;3.02;70.61
75045;BME280;63614;56.026;35.960;2022-10-31T15:01:38;98784.09;;;2.99;70.98
75045;BME280;63614;56.026;35.960;2022-10-31T15:06:46;98790.88;;;2.82;71.22
75045;BME280;63614;56.026;35.960;2022-10-31T15:09:29;98785.75;;;2.82;71.47
75045;BME280;63614;56.026;35.960;2022-10-31T15:11:57;98801.56;;;2.69;71.85
75045;BME280;63614;56.026;35.960;2022-10-31T15:14:29;98799.44;;;2.64;71.96
75045;BME280;63614;56.026;35.960;2022-10-31T15:17:02;98808.28;;;2.62;72.42
75045;BME280;63614;56.026;35.960;2022-10-31T15:19:29;98802.81;;;2.65;72.04
75045;BME280;63614;56.026;35.960;2022-10-31T15:21:57;98812.94;;;2.66;72.21
75045;BME280;63614;56.026;35.960;2022-10-31T15:24:27;98811.63;;;2.62;72.16
75045;BME280;63614;56.026;35.960;2022-10-31T15:26:55;98811.78;;;2.61;71.69
75045;BME280;63614;56.026;35.960;2022-10-31T15:29:23;98802.81;;;2.65;71.72
75045;BME280;63614;56.026;35.960;2022-10-31T15:31:57;98807.75;;;2.58;72.17
75045;BME280;63614;56.026;35.960;2022-10-31T15:36:55;98815.84;;;2.63;72.26
75045;BME280;63614;56.026;35.960;2022-10-31T15:39:21;98827.63;;;2.56;72.54
75045;BME280;63614;56.026;35.960;2022-10-31T15:41:53;98827.00;;;2.54;72.30
75045;BME280;63614;56.026;35.960;2022-10-31T15:44:36;98833.22;;;2.51;72.80
75045;BME280;63614;56.026;35.960;2022-10-31T15:47:21;98838.16;;;2.45;72.97
75045;BME280;63614;56.026;35.960;2022-10-31T15:49:50;98835.28;;;2.48;73.31
75045;BME280;63614;56.026;35.960;2022-10-31T15:52:22;98838.22;;;2.35;nan
75045;BME280;63614;56.026;35.960;2022-10-31T15:54:54;98841.31;;;2.39;73.61
75045;BME280;63614;56.026;35.960;2022-10-31T15:57:23;98839.53;;;2.39;73.11
75045;BME280;63614;56.026;35.960;2022-10-31T15:59:52;98844.59;;;2.31;73.32
75045;BME280;63614;56.026;35.960;2022-10-31T16:02:23;98847.69;;;2.34;73.38
75045;BME280;63614;56.026;35.960;2022-10-31T16:05:01;98857.13;;;2.34;73.38
75045;BME280;63614;56.026;35.960;2022-10-31T16:07:29;98853.50;;;2.36;73.04
75045;BME280;63614;56.026;35.960;2022-10-31T16:09:58;98855.22;;;2.36;72.82
75045;BME280;63614;56.026;35.960;2022-10-31T16:12:31;98859.66;;;2.26;72.95